Welcome to Northern Hawkes Bay. New Zealand.
PWS Header
      nz Flag



Hit Counter


W3C Valid W3C Valid logo


    Wairoa

Select any of the Stations below to visit their websites.










Historic Data from Weather Underground
Select the location of interest below. Wairoa is the default. Please have patience, this Data is slow to load in.
Northern Hawkes Bay Historical Data
Daily Summary for September 13, 2017 Units:  Metric    English   Both
« Previous Day
Next Day »
Daily Weekly Monthly Yearly Custom
  High: Low: Average:
Temperature: 21.2 °C 4.7 °C 12.4 °C
Dew Point: 10.0 °C 3.7 °C 6.4 °C
Humidity: 94% 38% 69%
Wind Speed: 15.8km/h 0.0km/h 4.1km/h
Wind Gust: 21.9km/h - -
Wind- - West
Pressure: 1008.7 hPa 1005.0 hPa -
Precipitation: 0.0 mm    
Historical Graphs
 
 
Tabular Data for September 13, 2017
Time Temperature Dew Point Pressure Wind Wind Speed Wind Gust Humidity Rainfall Rate (Hourly) solar
00:02 6.8 °C 4.8 °C 1005.3 hPa NW 3.5 km/h 12.2 km/h 87% 0.0 mm 0 W/m2
00:07 6.8 °C 4.8 °C 1005.0 hPa NW 5.0 km/h 12.2 km/h 87% 0.0 mm 0 W/m2
00:12 6.8 °C 4.8 °C 1005.0 hPa NW 6.1 km/h 9.7 km/h 87% 0.0 mm 0 W/m2
00:17 6.8 °C 4.8 °C 1005.3 hPa NW 5.0 km/h 11.1 km/h 87% 0.0 mm 0 W/m2
00:22 6.8 °C 4.8 °C 1005.0 hPa NW 5.0 km/h 11.1 km/h 87% 0.0 mm 0 W/m2
00:27 6.6 °C 4.6 °C 1005.3 hPa NW 3.5 km/h 8.7 km/h 87% 0.0 mm 0 W/m2
00:32 6.5 °C 4.5 °C 1005.3 hPa NW 5.0 km/h 8.7 km/h 87% 0.0 mm 0 W/m2
00:37 6.4 °C 4.4 °C 1005.6 hPa NW 5.0 km/h 8.7 km/h 87% 0.0 mm 0 W/m2
00:42 6.4 °C 4.4 °C 1005.6 hPa NW 3.5 km/h 8.7 km/h 87% 0.0 mm 0 W/m2
00:47 6.4 °C 4.6 °C 1005.3 hPa NNW 3.5 km/h 7.2 km/h 88% 0.0 mm 0 W/m2
00:52 6.4 °C 4.6 °C 1005.6 hPa NNW 3.5 km/h 7.2 km/h 88% 0.0 mm 0 W/m2
00:57 6.3 °C 4.3 °C 1005.6 hPa NW 5.0 km/h 7.2 km/h 87% 0.0 mm 0 W/m2
01:02 6.2 °C 4.2 °C 1005.6 hPa NW 3.5 km/h 7.2 km/h 87% 0.0 mm 0 W/m2
01:07 6.2 °C 4.4 °C 1005.3 hPa NW 6.1 km/h 7.2 km/h 88% 0.0 mm 0 W/m2
01:12 6.2 °C 4.4 °C 1005.6 hPa NNW 3.5 km/h 8.7 km/h 88% 0.0 mm 0 W/m2
01:17 6.2 °C 4.4 °C 1005.6 hPa NNW 3.5 km/h 8.7 km/h 88% 0.0 mm 0 W/m2
01:22 6.2 °C 4.4 °C 1005.6 hPa NW 3.5 km/h 7.2 km/h 88% 0.0 mm 0 W/m2
01:27 6.1 °C 4.3 °C 1005.6 hPa NW 3.5 km/h 7.2 km/h 88% 0.0 mm 0 W/m2
01:32 6.1 °C 4.3 °C 1005.6 hPa NW 2.6 km/h 7.2 km/h 88% 0.0 mm 0 W/m2
01:37 6.0 °C 4.2 °C 1005.6 hPa NW 3.5 km/h 7.2 km/h 88% 0.0 mm 0 W/m2
01:42 6.0 °C 4.2 °C 1005.6 hPa NW 5.0 km/h 8.7 km/h 88% 0.0 mm 0 W/m2
01:47 5.9 °C 4.2 °C 1005.6 hPa NW 3.5 km/h 8.7 km/h 89% 0.0 mm 0 W/m2
01:52 5.9 °C 4.2 °C 1005.3 hPa NW 3.5 km/h 8.7 km/h 89% 0.0 mm 0 W/m2
01:57 6.1 °C 4.4 °C 1005.6 hPa NW 3.5 km/h 8.7 km/h 89% 0.0 mm 0 W/m2
02:02 6.1 °C 4.4 °C 1005.3 hPa NW 3.5 km/h 8.7 km/h 89% 0.0 mm 0 W/m2
02:07 6.0 °C 4.2 °C 1005.3 hPa NW 3.5 km/h 7.2 km/h 88% 0.0 mm 0 W/m2
02:12 5.9 °C 4.2 °C 1005.3 hPa NW 5.0 km/h 7.2 km/h 89% 0.0 mm 0 W/m2
02:17 5.9 °C 4.2 °C 1005.3 hPa NNW 6.1 km/h 8.7 km/h 89% 0.0 mm 0 W/m2
02:22 6.0 °C 4.3 °C 1005.3 hPa NNW 5.0 km/h 11.1 km/h 89% 0.0 mm 0 W/m2
02:27 6.0 °C 4.3 °C 1005.3 hPa NNW 2.6 km/h 11.1 km/h 89% 0.0 mm 0 W/m2
02:37 5.9 °C 4.4 °C 1005.3 hPa NNW 3.5 km/h 9.7 km/h 90% 0.0 mm 0 W/m2
02:42 6.0 °C 4.3 °C 1005.3 hPa NNW 3.5 km/h 9.7 km/h 89% 0.0 mm 0 W/m2
02:47 6.1 °C 4.4 °C 1005.3 hPa NNW 3.5 km/h 11.1 km/h 89% 0.0 mm 0 W/m2
02:52 6.1 °C 4.4 °C 1005.3 hPa NNW 2.6 km/h 11.1 km/h 89% 0.0 mm 0 W/m2
02:57 5.9 °C 4.2 °C 1005.6 hPa NW 3.5 km/h 8.7 km/h 89% 0.0 mm 0 W/m2
03:02 5.6 °C 3.9 °C 1005.3 hPa NW 5.0 km/h 7.2 km/h 89% 0.0 mm 0 W/m2
03:07 5.5 °C 3.8 °C 1005.6 hPa NW 3.5 km/h 7.2 km/h 89% 0.0 mm 0 W/m2
03:12 5.4 °C 3.7 °C 1005.3 hPa NW 3.5 km/h 7.2 km/h 89% 0.0 mm 0 W/m2
03:17 5.3 °C 3.8 °C 1005.6 hPa NW 5.0 km/h 7.2 km/h 90% 0.0 mm 0 W/m2
03:22 5.3 °C 3.8 °C 1005.6 hPa NW 3.5 km/h 8.7 km/h 90% 0.0 mm 0 W/m2
03:27 5.2 °C 3.8 °C 1005.3 hPa NNW 5.0 km/h 8.7 km/h 91% 0.0 mm 0 W/m2
03:32 5.2 °C 3.8 °C 1005.6 hPa NNW 3.5 km/h 8.7 km/h 91% 0.0 mm 0 W/m2
03:37 5.1 °C 3.8 °C 1005.3 hPa NNW 3.5 km/h 7.2 km/h 91% 0.0 mm 0 W/m2
03:42 5.0 °C 3.8 °C 1005.3 hPa NNW 3.5 km/h 7.2 km/h 92% 0.0 mm 0 W/m2
03:47 4.9 °C 3.9 °C 1005.3 hPa NNW 3.5 km/h 7.2 km/h 93% 0.0 mm 0 W/m2
03:52 4.8 °C 3.8 °C 1005.3 hPa NW 5.0 km/h 8.7 km/h 93% 0.0 mm 0 W/m2
03:57 4.8 °C 3.8 °C 1005.3 hPa NW 5.0 km/h 8.7 km/h 93% 0.0 mm 0 W/m2
04:02 4.8 °C 3.9 °C 1005.6 hPa NW 6.1 km/h 8.7 km/h 94% 0.0 mm 0 W/m2
04:07 4.8 °C 3.9 °C 1005.3 hPa NW 5.0 km/h 8.7 km/h 94% 0.0 mm 0 W/m2
04:12 4.8 °C 3.9 °C 1005.3 hPa NW 5.0 km/h 8.7 km/h 94% 0.0 mm 0 W/m2
04:17 4.8 °C 3.9 °C 1005.6 hPa NW 6.1 km/h 8.7 km/h 94% 0.0 mm 0 W/m2
04:22 4.8 °C 3.9 °C 1005.6 hPa NW 6.1 km/h 8.7 km/h 94% 0.0 mm 0 W/m2
04:27 4.8 °C 3.9 °C 1005.6 hPa NW 6.1 km/h 8.7 km/h 94% 0.0 mm 0 W/m2
04:32 4.9 °C 4.0 °C 1005.6 hPa NW 6.1 km/h 9.7 km/h 94% 0.0 mm 0 W/m2
04:37 5.0 °C 3.9 °C 1005.6 hPa NW 6.1 km/h 9.7 km/h 93% 0.0 mm 0 W/m2
04:42 5.0 °C 3.9 °C 1005.6 hPa NW 5.0 km/h 9.7 km/h 93% 0.0 mm 0 W/m2
04:47 5.0 °C 3.9 °C 1005.6 hPa NW 6.1 km/h 9.7 km/h 93% 0.0 mm 0 W/m2
04:52 4.9 °C 4.0 °C 1005.3 hPa NW 7.2 km/h 9.7 km/h 94% 0.0 mm 0 W/m2
04:57 4.9 °C 4.0 °C 1005.6 hPa NW 6.1 km/h 11.1 km/h 94% 0.0 mm 0 W/m2
05:01 4.8 °C 3.9 °C 1005.6 hPa NW 6.1 km/h 11.1 km/h 94% 0.0 mm 0 W/m2
05:06 4.8 °C 3.9 °C 1006.0 hPa NW 6.1 km/h 11.1 km/h 94% 0.0 mm 0 W/m2
05:11 4.8 °C 3.9 °C 1006.0 hPa NW 6.1 km/h 9.7 km/h 94% 0.0 mm 0 W/m2
05:16 4.7 °C 3.8 °C 1006.0 hPa NW 6.1 km/h 11.1 km/h 94% 0.0 mm 0 W/m2
05:21 4.7 °C 3.8 °C 1006.0 hPa NW 3.5 km/h 11.1 km/h 94% 0.0 mm 0 W/m2
05:26 4.8 °C 3.9 °C 1006.0 hPa NW 5.0 km/h 9.7 km/h 94% 0.0 mm 0 W/m2
05:31 4.9 °C 4.0 °C 1006.3 hPa NW 6.1 km/h 11.1 km/h 94% 0.0 mm 0 W/m2
05:36 5.0 °C 3.9 °C 1006.3 hPa NW 6.1 km/h 11.1 km/h 93% 0.0 mm 0 W/m2
05:41 5.1 °C 4.1 °C 1006.3 hPa NNW 5.0 km/h 11.1 km/h 93% 0.0 mm 0 W/m2
05:46 5.2 °C 4.2 °C 1006.3 hPa NW 5.0 km/h 9.7 km/h 93% 0.0 mm 0 W/m2
05:52 5.1 °C 4.1 °C 1006.7 hPa NW 3.5 km/h 9.7 km/h 93% 0.0 mm 0 W/m2
05:57 5.0 °C 3.8 °C 1006.3 hPa NW 5.0 km/h 9.7 km/h 92% 0.0 mm 0 W/m2
06:02 5.0 °C 3.8 °C 1006.7 hPa NW 3.5 km/h 8.7 km/h 92% 0.0 mm 0 W/m2
06:07 5.0 °C 3.8 °C 1006.3 hPa NW 3.5 km/h 8.7 km/h 92% 0.0 mm 0 W/m2
06:12 5.0 °C 3.8 °C 1006.7 hPa NNW 5.0 km/h 9.7 km/h 92% 0.0 mm 0 W/m2
06:17 5.1 °C 4.1 °C 1006.7 hPa NNW 6.1 km/h 9.7 km/h 93% 0.0 mm 0 W/m2
06:22 5.1 °C 3.9 °C 1006.7 hPa NW 5.0 km/h 9.7 km/h 92% 0.0 mm 3 W/m2
06:27 5.0 °C 3.8 °C 1006.7 hPa NNW 5.0 km/h 9.7 km/h 92% 0.0 mm 5 W/m2
06:32 5.0 °C 3.8 °C 1007.0 hPa NNW 2.6 km/h 8.7 km/h 92% 0.0 mm 8 W/m2
06:37 5.0 °C 3.8 °C 1007.0 hPa NNW 3.5 km/h 8.7 km/h 92% 0.0 mm 12 W/m2
06:42 5.0 °C 3.8 °C 1007.0 hPa NW 5.0 km/h 6.1 km/h 92% 0.0 mm 44 W/m2
06:47 5.2 °C 4.0 °C 1007.0 hPa NW 6.1 km/h 7.2 km/h 92% 0.0 mm 53 W/m2
06:52 5.5 °C 4.3 °C 1007.0 hPa NW 6.1 km/h 9.7 km/h 92% 0.0 mm 71 W/m2
07:10 6.2 °C 4.5 °C 1007.3 hPa NNW 6.1 km/h 12.2 km/h 89% 0.0 mm 102 W/m2
07:15 6.7 °C 4.8 °C 1007.3 hPa NNW 7.2 km/h 12.2 km/h 88% 0.0 mm 123 W/m2
07:20 7.2 °C 5.0 °C 1007.3 hPa North 7.2 km/h 13.4 km/h 86% 0.0 mm 128 W/m2
07:25 7.4 °C 4.9 °C 1007.3 hPa North 8.7 km/h 15.8 km/h 84% 0.0 mm 98 W/m2
07:30 7.4 °C 4.7 °C 1007.3 hPa NNW 8.7 km/h 15.8 km/h 83% 0.0 mm 152 W/m2
07:35 7.7 °C 4.8 °C 1007.7 hPa North 8.7 km/h 14.8 km/h 82% 0.0 mm 181 W/m2
07:40 8.1 °C 5.1 °C 1007.7 hPa North 7.2 km/h 14.8 km/h 81% 0.0 mm 188 W/m2
07:46 8.5 °C 5.2 °C 1008.0 hPa NNW 11.1 km/h 15.8 km/h 80% 0.0 mm 193 W/m2
07:51 8.9 °C 5.4 °C 1008.0 hPa NNW 12.2 km/h 15.8 km/h 79% 0.0 mm 203 W/m2
07:56 9.3 °C 5.5 °C 1008.4 hPa NNW 8.7 km/h 15.8 km/h 77% 0.0 mm 209 W/m2
08:01 9.7 °C 5.7 °C 1008.4 hPa NNW 7.2 km/h 14.8 km/h 76% 0.0 mm 220 W/m2
08:06 10.0 °C 5.6 °C 1008.4 hPa NNW 6.1 km/h 14.8 km/h 74% 0.0 mm 226 W/m2
08:11 10.2 °C 5.6 °C 1008.4 hPa NNW 14.8 km/h 18.3 km/h 73% 0.0 mm 233 W/m2
08:16 10.4 °C 5.8 °C 1008.4 hPa NNW 8.7 km/h 18.3 km/h 73% 0.0 mm 239 W/m2
08:21 10.6 °C 5.8 °C 1008.7 hPa NNW 9.7 km/h 18.3 km/h 72% 0.0 mm 244 W/m2
08:26 10.7 °C 5.9 °C 1008.7 hPa NNW 11.1 km/h 18.3 km/h 72% 0.0 mm 248 W/m2
08:31 11.0 °C 5.9 °C 1008.7 hPa NNW 8.7 km/h 17.2 km/h 71% 0.0 mm 253 W/m2
08:36 11.2 °C 5.9 °C 1008.4 hPa NNW 5.0 km/h 15.8 km/h 70% 0.0 mm 258 W/m2
08:41 11.5 °C 6.2 °C 1008.4 hPa North 8.7 km/h 15.8 km/h 70% 0.0 mm 262 W/m2
08:46 11.7 °C 6.4 °C 1008.4 hPa NW 11.1 km/h 15.8 km/h 70% 0.0 mm 264 W/m2
08:51 12.1 °C 6.8 °C 1008.7 hPa NW 6.1 km/h 14.8 km/h 70% 0.0 mm 269 W/m2
08:56 12.4 °C 6.7 °C 1008.4 hPa NNW 7.2 km/h 15.8 km/h 68% 0.0 mm 275 W/m2
09:01 12.6 °C 6.8 °C 1008.7 hPa NNW 2.6 km/h 15.8 km/h 68% 0.0 mm 281 W/m2
09:06 13.3 °C 7.3 °C 1008.4 hPa North 3.5 km/h 13.4 km/h 67% 0.0 mm 288 W/m2
09:11 13.4 °C 6.9 °C 1008.4 hPa NNW 7.2 km/h 14.8 km/h 65% 0.0 mm 292 W/m2
09:16 13.6 °C 7.4 °C 1008.4 hPa NNW 7.2 km/h 14.8 km/h 66% 0.0 mm 297 W/m2
09:21 13.7 °C 7.2 °C 1008.7 hPa North 7.2 km/h 14.8 km/h 65% 0.0 mm 303 W/m2
09:26 14.0 °C 7.3 °C 1008.4 hPa North 11.1 km/h 14.8 km/h 64% 0.0 mm 308 W/m2
09:31 14.0 °C 7.3 °C 1008.7 hPa NNW 5.0 km/h 14.8 km/h 64% 0.0 mm 311 W/m2
09:36 14.6 °C 7.9 °C 1008.4 hPa NNW 7.2 km/h 14.8 km/h 64% 0.0 mm 314 W/m2
09:41 15.0 °C 7.8 °C 1008.4 hPa North 9.7 km/h 13.4 km/h 62% 0.0 mm 313 W/m2
09:46 15.0 °C 7.6 °C 1008.4 hPa North 7.2 km/h 14.8 km/h 61% 0.0 mm 278 W/m2
09:51 15.2 °C 7.7 °C 1008.4 hPa North 6.1 km/h 14.8 km/h 61% 0.0 mm 136 W/m2
09:56 15.6 °C 7.9 °C 1008.4 hPa North 6.1 km/h 12.2 km/h 60% 0.0 mm 64 W/m2
10:01 16.0 °C 7.5 °C 1008.4 hPa North 5.0 km/h 13.4 km/h 57% 0.0 mm 62 W/m2
10:06 16.2 °C 7.4 °C 1008.4 hPa North 7.2 km/h 13.4 km/h 56% 0.0 mm 59 W/m2
10:11 16.2 °C 7.4 °C 1008.4 hPa North 5.0 km/h 12.2 km/h 56% 0.0 mm 57 W/m2
10:16 16.5 °C 7.7 °C 1008.4 hPa North 3.5 km/h 14.8 km/h 56% 0.0 mm 58 W/m2
10:21 17.1 °C 7.2 °C 1008.4 hPa North 12.2 km/h 17.2 km/h 52% 0.0 mm 62 W/m2
10:26 16.8 °C 6.3 °C 1008.4 hPa North 13.4 km/h 17.2 km/h 50% 0.0 mm 68 W/m2
10:31 16.7 °C 6.8 °C 1008.0 hPa NNW 6.1 km/h 17.2 km/h 52% 0.0 mm 213 W/m2
10:36 16.8 °C 7.2 °C 1008.4 hPa NNW 6.1 km/h 17.2 km/h 53% 0.0 mm 364 W/m2
10:41 17.4 °C 7.2 °C 1008.0 hPa North 8.7 km/h 17.2 km/h 51% 0.0 mm 399 W/m2
10:46 17.1 °C 6.9 °C 1008.0 hPa NNE 8.7 km/h 14.8 km/h 51% 0.0 mm 415 W/m2
10:51 17.2 °C 6.7 °C 1007.7 hPa NNW 2.6 km/h 14.8 km/h 50% 0.0 mm 97 W/m2
10:56 17.7 °C 7.4 °C 1008.0 hPa NNW 2.6 km/h 14.8 km/h 51% 0.0 mm 441 W/m2
11:06 17.7 °C 6.8 °C 1007.7 hPa NNW 15.8 km/h 17.2 km/h 49% 0.0 mm 456 W/m2
11:11 17.5 °C 6.1 °C 1007.7 hPa NNW 8.7 km/h 17.2 km/h 47% 0.0 mm 451 W/m2
11:16 17.5 °C 6.1 °C 1008.0 hPa North 5.0 km/h 17.2 km/h 47% 0.0 mm 462 W/m2
11:21 17.7 °C 6.3 °C 1007.7 hPa North 5.0 km/h 13.4 km/h 47% 0.0 mm 471 W/m2
11:26 17.8 °C 6.1 °C 1007.7 hPa NNW 6.1 km/h 15.8 km/h 46% 0.0 mm 474 W/m2
11:31 18.0 °C 6.2 °C 1007.7 hPa NNW 13.4 km/h 21.9 km/h 46% 0.0 mm 476 W/m2
11:36 17.7 °C 5.9 °C 1007.7 hPa NNW 6.1 km/h 21.9 km/h 46% 0.0 mm 479 W/m2
11:41 18.3 °C 6.8 °C 1007.3 hPa NNW 1.1 km/h 20.9 km/h 47% 0.0 mm 489 W/m2
11:46 19.0 °C 6.8 °C 1007.3 hPa North 6.1 km/h 12.2 km/h 45% 0.0 mm 493 W/m2
11:51 18.7 °C 6.8 °C 1007.3 hPa NNW 3.5 km/h 14.8 km/h 46% 0.0 mm 496 W/m2
11:56 18.6 °C 7.1 °C 1007.0 hPa North 6.1 km/h 14.8 km/h 47% 0.0 mm 497 W/m2
12:01 19.3 °C 7.1 °C 1007.0 hPa North 2.6 km/h 13.4 km/h 45% 0.0 mm 501 W/m2
12:06 19.2 °C 7.0 °C 1007.0 hPa North 7.2 km/h 12.2 km/h 45% 0.0 mm 501 W/m2
12:11 19.2 °C 7.0 °C 1007.0 hPa NNW 7.2 km/h 12.2 km/h 45% 0.0 mm 500 W/m2
12:16 19.4 °C 6.8 °C 1006.7 hPa North 7.2 km/h 12.2 km/h 44% 0.0 mm 502 W/m2
12:34 20.1 °C 7.2 °C 1006.7 hPa North 6.1 km/h 19.5 km/h 43% 0.0 mm 506 W/m2
12:39 20.2 °C 7.2 °C 1006.7 hPa North 2.6 km/h 19.5 km/h 43% 0.0 mm 505 W/m2
12:44 20.2 °C 7.2 °C 1006.7 hPa North 3.5 km/h 14.8 km/h 43% 0.0 mm 504 W/m2
12:49 20.2 °C 6.9 °C 1006.3 hPa North 3.5 km/h 14.8 km/h 42% 0.0 mm 503 W/m2
12:54 20.5 °C 7.2 °C 1006.7 hPa NNE 6.1 km/h 12.2 km/h 42% 0.0 mm 504 W/m2
12:59 20.6 °C 7.2 °C 1006.7 hPa North 6.1 km/h 12.2 km/h 42% 0.0 mm 507 W/m2
13:04 20.8 °C 7.4 °C 1006.3 hPa NNW 2.6 km/h 12.2 km/h 42% 0.0 mm 234 W/m2
13:09 19.5 °C 6.9 °C 1006.7 hPa NW 3.5 km/h 17.2 km/h 44% 0.0 mm 202 W/m2
13:14 18.5 °C 8.4 °C 1006.7 hPa West 11.1 km/h 18.3 km/h 52% 0.0 mm 512 W/m2
13:19 17.3 °C 7.6 °C 1006.3 hPa South 5.0 km/h 18.3 km/h 53% 0.0 mm 119 W/m2
13:24 16.9 °C 7.3 °C 1006.3 hPa Calm   15.8 km/h 53% 0.0 mm 133 W/m2
13:29 17.7 °C 8.6 °C 1006.3 hPa SSE 2.6 km/h 12.2 km/h 55% 0.0 mm 461 W/m2
13:34 18.0 °C 8.8 °C 1006.3 hPa SSE 7.2 km/h 11.1 km/h 55% 0.0 mm 117 W/m2
13:39 17.0 °C 8.2 °C 1006.3 hPa SSE 5.0 km/h 11.1 km/h 56% 0.0 mm 513 W/m2
13:44 17.5 °C 8.4 °C 1006.3 hPa South 7.2 km/h 12.2 km/h 55% 0.0 mm 218 W/m2
13:49 16.9 °C 8.3 °C 1006.3 hPa South 3.5 km/h 12.2 km/h 57% 0.0 mm 150 W/m2
13:54 16.9 °C 8.6 °C 1006.3 hPa SSE 3.5 km/h 9.7 km/h 58% 0.0 mm 498 W/m2
13:59 18.1 °C 9.4 °C 1006.3 hPa SSE 6.1 km/h 9.7 km/h 57% 0.0 mm 433 W/m2
14:04 18.7 °C 10.0 °C 1006.3 hPa South 5.0 km/h 8.7 km/h 57% 0.0 mm 271 W/m2
14:22 18.5 °C 8.7 °C 1006.7 hPa SSW 8.7 km/h 15.8 km/h 53% 0.0 mm 118 W/m2
14:27 18.2 °C 9.3 °C 1006.3 hPa South 6.1 km/h 15.8 km/h 56% 0.0 mm 97 W/m2
14:32 18.3 °C 9.1 °C 1006.7 hPa South 11.1 km/h 14.8 km/h 55% 0.0 mm 80 W/m2
14:37 17.8 °C 8.1 °C 1006.7 hPa South 5.0 km/h 14.8 km/h 53% 0.0 mm 102 W/m2
14:42 18.5 °C 8.7 °C 1006.7 hPa South 5.0 km/h 14.8 km/h 53% 0.0 mm 83 W/m2
14:47 18.9 °C 8.8 °C 1006.7 hPa South 6.1 km/h 12.2 km/h 52% 0.0 mm 89 W/m2
14:52 19.2 °C 7.9 °C 1006.7 hPa South 3.5 km/h 12.2 km/h 48% 0.0 mm 119 W/m2
14:57 19.0 °C 7.1 °C 1006.7 hPa South 2.6 km/h 12.2 km/h 46% 0.0 mm 182 W/m2
15:02 18.6 °C 7.4 °C 1006.7 hPa South 2.6 km/h 12.2 km/h 48% 0.0 mm 444 W/m2
15:07 20.0 °C 7.7 °C 1006.7 hPa South 1.1 km/h 9.7 km/h 45% 0.0 mm 308 W/m2
15:16 20.6 °C 8.3 °C 1006.7 hPa Calm   7.2 km/h 45% 0.0 mm 351 W/m2
15:21 19.9 °C 6.9 °C 1006.7 hPa SSE 2.6 km/h 7.2 km/h 43% 0.0 mm 174 W/m2
15:23 19.5 °C 6.9 °C 1006.7 hPa Calm   6.1 km/h 44% 0.0 mm 146 W/m2
15:28 19.2 °C 7.3 °C 1006.7 hPa Calm   6.1 km/h 46% 0.0 mm 272 W/m2
15:33 20.1 °C 7.5 °C 1007.0 hPa Calm   5.0 km/h 44% 0.0 mm 352 W/m2
15:37 20.5 °C 7.5 °C 1007.0 hPa Calm   6.1 km/h 43% 0.0 mm 345 W/m2
15:42 21.1 °C 7.7 °C 1006.7 hPa ESE 1.1 km/h 6.1 km/h 42% 0.0 mm 201 W/m2
15:47 21.2 °C 6.3 °C 1006.7 hPa SE 1.1 km/h 7.2 km/h 38% 0.0 mm 173 W/m2
15:52 19.9 °C 6.6 °C 1006.7 hPa Calm   7.2 km/h 42% 0.0 mm 148 W/m2
15:57 19.4 °C 7.2 °C 1006.7 hPa ESE 1.1 km/h 6.1 km/h 45% 0.0 mm 190 W/m2
16:02 19.9 °C 7.3 °C 1007.0 hPa Calm   6.1 km/h 44% 0.0 mm 264 W/m2
16:07 21.0 °C 8.3 °C 1006.7 hPa Calm   6.1 km/h 44% 0.0 mm 193 W/m2
16:12 19.9 °C 7.9 °C 1006.7 hPa ENE 2.6 km/h 9.7 km/h 46% 0.0 mm 137 W/m2
16:17 18.8 °C 8.7 °C 1006.7 hPa ENE 3.5 km/h 9.7 km/h 52% 0.0 mm 126 W/m2
16:23 18.4 °C 8.4 °C 1006.7 hPa ENE 2.6 km/h 8.7 km/h 52% 0.0 mm 70 W/m2
16:28 17.7 °C 8.0 °C 1007.0 hPa ENE 5.0 km/h 8.7 km/h 53% 0.0 mm 73 W/m2
16:33 17.5 °C 8.1 °C 1007.0 hPa ENE 2.6 km/h 7.2 km/h 54% 0.0 mm 86 W/m2
16:38 18.1 °C 8.7 °C 1007.0 hPa ENE 2.6 km/h 6.1 km/h 54% 0.0 mm 136 W/m2
16:43 19.0 °C 8.1 °C 1007.0 hPa East 3.5 km/h 6.1 km/h 49% 0.0 mm 110 W/m2
16:48 19.0 °C 7.8 °C 1006.7 hPa East 5.0 km/h 7.2 km/h 48% 0.0 mm 92 W/m2
16:53 19.0 °C 8.1 °C 1007.0 hPa East 3.5 km/h 7.2 km/h 49% 0.0 mm 77 W/m2
16:58 19.0 °C 7.4 °C 1007.0 hPa ENE 5.0 km/h 7.2 km/h 47% 0.0 mm 64 W/m2
17:03 18.8 °C 8.2 °C 1007.0 hPa NE 2.6 km/h 7.2 km/h 50% 0.0 mm 48 W/m2
17:08 18.7 °C 8.4 °C 1007.0 hPa ENE 2.6 km/h 7.2 km/h 51% 0.0 mm 42 W/m2
17:13 17.8 °C 8.1 °C 1007.0 hPa ENE 3.5 km/h 7.2 km/h 53% 0.0 mm 38 W/m2
17:18 17.7 °C 8.3 °C 1007.0 hPa Calm   7.2 km/h 54% 0.0 mm 26 W/m2
17:35 16.2 °C 8.2 °C 1007.3 hPa Calm   1.1 km/h 59% 0.0 mm 6 W/m2
17:40 16.0 °C 8.5 °C 1007.3 hPa Calm   2.6 km/h 61% 0.0 mm 4 W/m2
17:46 15.7 °C 8.7 °C 1007.3 hPa Calm   1.1 km/h 63% 0.0 mm 3 W/m2
17:51 15.5 °C 8.5 °C 1007.3 hPa Calm   1.1 km/h 63% 0.0 mm 1 W/m2
17:57 15.4 °C 8.6 °C 1007.3 hPa North 3.5 km/h 7.2 km/h 64% 0.0 mm 0 W/m2
18:02 15.3 °C 8.6 °C 1007.3 hPa Calm   7.2 km/h 64% 0.0 mm 0 W/m2
18:07 15.1 °C 8.3 °C 1007.3 hPa Calm   7.2 km/h 64% 0.0 mm 0 W/m2
18:12 15.0 °C 8.3 °C 1007.3 hPa Calm   6.1 km/h 64% 0.0 mm 0 W/m2
18:17 14.9 °C 8.4 °C 1007.3 hPa Calm   6.1 km/h 65% 0.0 mm 0 W/m2
18:22 14.8 °C 8.3 °C 1007.3 hPa Calm   2.6 km/h 65% 0.0 mm 0 W/m2
18:27 14.6 °C 8.1 °C 1007.7 hPa Calm   3.5 km/h 65% 0.0 mm 0 W/m2
18:32 14.4 °C 7.9 °C 1007.3 hPa Calm   5.0 km/h 65% 0.0 mm 0 W/m2
18:37 14.4 °C 7.9 °C 1007.3 hPa Calm   5.0 km/h 65% 0.0 mm 0 W/m2
18:42 14.3 °C 7.8 °C 1007.7 hPa North 1.1 km/h 3.5 km/h 65% 0.0 mm 0 W/m2
18:47 14.1 °C 7.6 °C 1007.7 hPa Calm   3.5 km/h 65% 0.0 mm 0 W/m2
18:52 14.0 °C 7.6 °C 1007.7 hPa Calm   3.5 km/h 65% 0.0 mm 0 W/m2
18:57 13.7 °C 7.4 °C 1007.7 hPa Calm     66% 0.0 mm 0 W/m2
19:02 13.6 °C 7.4 °C 1007.7 hPa Calm   1.1 km/h 66% 0.0 mm 0 W/m2
19:07 13.5 °C 7.3 °C 1007.7 hPa Calm   1.1 km/h 66% 0.0 mm 0 W/m2
19:12 13.4 °C 7.2 °C 1008.0 hPa Calm   2.6 km/h 66% 0.0 mm 0 W/m2
19:17 13.4 °C 7.2 °C 1007.7 hPa North 1.1 km/h 5.0 km/h 66% 0.0 mm 0 W/m2
19:22 13.4 °C 7.2 °C 1007.7 hPa North 2.6 km/h 5.0 km/h 66% 0.0 mm 0 W/m2
19:27 13.5 °C 7.3 °C 1008.0 hPa North 2.6 km/h 7.2 km/h 66% 0.0 mm 0 W/m2
19:32 13.6 °C 7.4 °C 1008.0 hPa NNW 2.6 km/h 7.2 km/h 66% 0.0 mm 0 W/m2
19:37 13.7 °C 7.2 °C 1007.7 hPa NNW 2.6 km/h 8.7 km/h 65% 0.0 mm 0 W/m2
19:42 13.7 °C 7.2 °C 1007.7 hPa North 3.5 km/h 8.7 km/h 65% 0.0 mm 0 W/m2
19:47 13.7 °C 7.2 °C 1008.0 hPa North 1.1 km/h 8.7 km/h 65% 0.0 mm 0 W/m2
19:52 13.7 °C 7.2 °C 1008.0 hPa North 2.6 km/h 8.7 km/h 65% 0.0 mm 0 W/m2
19:57 13.6 °C 7.2 °C 1007.7 hPa Calm   8.7 km/h 65% 0.0 mm 0 W/m2
20:02 13.6 °C 7.4 °C 1008.0 hPa North 3.5 km/h 9.7 km/h 66% 0.0 mm 0 W/m2
20:07 13.6 °C 7.4 °C 1008.0 hPa North 1.1 km/h 9.7 km/h 66% 0.0 mm 0 W/m2
20:12 13.6 °C 7.4 °C 1008.0 hPa North 1.1 km/h 8.7 km/h 66% 0.0 mm 0 W/m2
20:17 13.6 °C 7.4 °C 1008.0 hPa North 2.6 km/h 8.7 km/h 66% 0.0 mm 0 W/m2
20:22 13.5 °C 7.5 °C 1008.0 hPa NNE 1.1 km/h 8.7 km/h 67% 0.0 mm 0 W/m2
20:27 13.4 °C 7.4 °C 1008.0 hPa North 1.1 km/h 7.2 km/h 67% 0.0 mm 0 W/m2
20:32 13.4 °C 7.4 °C 1008.0 hPa North 1.1 km/h 7.2 km/h 67% 0.0 mm 0 W/m2
20:37 13.3 °C 7.3 °C 1008.0 hPa North 1.1 km/h 6.1 km/h 67% 0.0 mm 0 W/m2
20:42 13.2 °C 7.2 °C 1008.0 hPa Calm   6.1 km/h 67% 0.0 mm 0 W/m2
20:47 13.1 °C 7.1 °C 1008.0 hPa North 3.5 km/h 6.1 km/h 67% 0.0 mm 0 W/m2
20:52 13.0 °C 7.2 °C 1008.0 hPa North 1.1 km/h 6.1 km/h 68% 0.0 mm 0 W/m2
20:57 13.0 °C 7.4 °C 1008.4 hPa NNW 1.1 km/h 7.2 km/h 69% 0.0 mm 0 W/m2
21:02 13.1 °C 7.6 °C 1008.4 hPa North 3.5 km/h 7.2 km/h 69% 0.0 mm 0 W/m2
21:07 13.3 °C 7.7 °C 1008.4 hPa NNW 2.6 km/h 8.7 km/h 69% 0.0 mm 0 W/m2
21:26 13.5 °C 7.7 °C 1008.0 hPa Calm   7.2 km/h 68% 0.0 mm 0 W/m2
21:31 13.4 °C 7.6 °C 1008.0 hPa Calm   7.2 km/h 68% 0.0 mm 0 W/m2
21:36 13.3 °C 7.5 °C 1008.0 hPa Calm   6.1 km/h 68% 0.0 mm 0 W/m2
21:41 13.2 °C 7.4 °C 1008.0 hPa Calm   6.1 km/h 68% 0.0 mm 0 W/m2
21:46 13.2 °C 7.4 °C 1008.0 hPa Calm   3.5 km/h 68% 0.0 mm 0 W/m2
21:51 13.2 °C 7.4 °C 1008.0 hPa North 1.1 km/h 5.0 km/h 68% 0.0 mm 0 W/m2
21:56 13.4 °C 7.6 °C 1008.0 hPa North 1.1 km/h 7.2 km/h 68% 0.0 mm 0 W/m2
22:01 13.5 °C 7.7 °C 1008.0 hPa Calm   7.2 km/h 68% 0.0 mm 0 W/m2
22:06 13.5 °C 7.7 °C 1008.0 hPa Calm   6.1 km/h 68% 0.0 mm 0 W/m2
22:11 13.5 °C 7.7 °C 1007.7 hPa NNW 1.1 km/h 6.1 km/h 68% 0.0 mm 0 W/m2
22:16 13.6 °C 7.8 °C 1007.7 hPa North 2.6 km/h 7.2 km/h 68% 0.0 mm 0 W/m2
22:21 13.6 °C 7.8 °C 1008.0 hPa Calm   7.2 km/h 68% 0.0 mm 0 W/m2
22:26 13.6 °C 7.8 °C 1007.7 hPa North 1.1 km/h 5.0 km/h 68% 0.0 mm 0 W/m2
22:31 13.8 °C 7.8 °C 1007.7 hPa North 1.1 km/h 8.7 km/h 67% 0.0 mm 0 W/m2
22:36 13.9 °C 7.9 °C 1007.7 hPa North 2.6 km/h 9.7 km/h 67% 0.0 mm 0 W/m2
22:41 14.1 °C 7.8 °C 1007.7 hPa North 3.5 km/h 9.7 km/h 66% 0.0 mm 0 W/m2
22:46 14.1 °C 7.8 °C 1007.3 hPa North 2.6 km/h 7.2 km/h 66% 0.0 mm 0 W/m2
22:51 14.0 °C 7.8 °C 1007.3 hPa Calm   8.7 km/h 66% 0.0 mm 0 W/m2
22:56 14.0 °C 7.8 °C 1007.3 hPa NNE 2.6 km/h 8.7 km/h 66% 0.0 mm 0 W/m2
23:01 13.9 °C 7.9 °C 1007.3 hPa NNE 1.1 km/h 7.2 km/h 67% 0.0 mm 0 W/m2
23:06 13.8 °C 8.0 °C 1007.3 hPa Calm   6.1 km/h 68% 0.0 mm 0 W/m2
23:11 13.8 °C 8.0 °C 1007.3 hPa Calm   6.1 km/h 68% 0.0 mm 0 W/m2
23:16 13.6 °C 7.8 °C 1007.3 hPa NNE 1.1 km/h 6.1 km/h 68% 0.0 mm 0 W/m2
23:21 13.6 °C 7.8 °C 1007.3 hPa Calm   6.1 km/h 68% 0.0 mm 0 W/m2
23:26 13.6 °C 7.8 °C 1007.3 hPa NNE 2.6 km/h 5.0 km/h 68% 0.0 mm 0 W/m2
23:31 13.6 °C 7.8 °C 1007.3 hPa Calm   5.0 km/h 68% 0.0 mm 0 W/m2
23:36 13.5 °C 7.9 °C 1007.3 hPa Calm   5.0 km/h 69% 0.0 mm 0 W/m2
23:41 13.4 °C 7.8 °C 1007.3 hPa North 2.6 km/h 7.2 km/h 69% 0.0 mm 0 W/m2
23:46 13.6 °C 8.0 °C 1007.0 hPa North 2.6 km/h 7.2 km/h 69% 0.0 mm 0 W/m2
23:51 13.6 °C 8.0 °C 1007.3 hPa North 2.6 km/h 8.7 km/h 69% 0.0 mm 0 W/m2
23:56 13.8 °C 8.0 °C 1007.0 hPa North 2.6 km/h 13.4 km/h 68% 0.0 mm 0 W/m2
Northern Hawkes Bay. New Zealand Historic Data
Compliments of Weather Underground - 2 mb